createdAt,value
2023-07-21T00:00:07.561Z,16.53
2023-07-21T00:01:07.570Z,16.55
2023-07-21T00:02:07.415Z,16.62
2023-07-21T00:03:07.403Z,16.56
2023-07-21T00:04:07.375Z,16.52
2023-07-21T00:05:07.182Z,16.50
2023-07-21T00:06:07.098Z,16.35
2023-07-21T00:07:07.010Z,16.45
2023-07-21T00:08:06.936Z,16.34
2023-07-21T00:09:06.849Z,16.42
2023-07-21T00:10:06.786Z,16.30
2023-07-21T00:11:06.774Z,16.34
2023-07-21T00:12:06.621Z,16.42
2023-07-21T00:13:06.565Z,16.41
2023-07-21T00:14:06.465Z,16.37
2023-07-21T00:15:06.392Z,16.33
2023-07-21T00:16:06.500Z,16.38
2023-07-21T00:17:06.235Z,16.41
2023-07-21T00:18:06.216Z,16.48
2023-07-21T00:19:06.094Z,16.42
2023-07-21T00:20:06.002Z,16.38
2023-07-21T00:21:05.926Z,16.41
2023-07-21T00:22:05.912Z,16.34
2023-07-21T00:23:05.780Z,16.14
2023-07-21T00:24:05.748Z,16.04
2023-07-21T00:25:05.626Z,16.04
2023-07-21T00:26:05.544Z,15.99
2023-07-21T00:27:05.462Z,15.91
2023-07-21T00:28:05.388Z,15.85
2023-07-21T00:29:05.318Z,15.88
2023-07-21T00:30:05.231Z,15.86
2023-07-21T00:31:05.192Z,15.83
2023-07-21T00:32:05.086Z,15.71
2023-07-21T00:33:05.032Z,15.79
2023-07-21T00:34:04.930Z,15.75
2023-07-21T00:35:04.846Z,15.67
2023-07-21T00:36:04.766Z,15.70
2023-07-21T00:37:04.686Z,15.76
2023-07-21T00:38:04.619Z,15.75
2023-07-21T00:39:04.537Z,15.60
2023-07-21T00:40:04.459Z,15.60
2023-07-21T00:41:04.384Z,15.52
2023-07-21T00:42:04.307Z,15.51
2023-07-21T00:43:04.230Z,15.35
2023-07-21T00:44:04.153Z,15.26
2023-07-21T00:45:04.140Z,15.24
2023-07-21T00:46:03.995Z,15.15
2023-07-21T00:47:03.942Z,15.12
2023-07-21T00:48:03.890Z,15.05
2023-07-21T00:49:03.762Z,14.97
2023-07-21T00:50:03.686Z,15.01
2023-07-21T00:51:03.610Z,14.95
2023-07-21T00:52:03.535Z,15.06
2023-07-21T00:53:03.454Z,15.09
2023-07-21T00:54:03.384Z,15.15
2023-07-21T00:55:03.301Z,15.15
2023-07-21T00:56:03.222Z,15.24
2023-07-21T00:57:03.138Z,15.26
2023-07-21T00:58:03.082Z,15.27
2023-07-21T00:59:02.987Z,15.39
2023-07-21T01:00:02.906Z,15.30
2023-07-21T01:01:02.876Z,15.27
2023-07-21T01:02:02.812Z,15.28
2023-07-21T01:03:02.745Z,15.31
2023-07-21T01:04:02.599Z,15.28
2023-07-21T01:05:02.623Z,15.13
2023-07-21T01:06:02.442Z,15.12
2023-07-21T01:07:02.359Z,15.08
2023-07-21T01:08:02.289Z,15.01
2023-07-21T01:09:02.210Z,14.97
2023-07-21T01:10:02.134Z,14.93
2023-07-21T01:11:02.075Z,14.85
2023-07-21T01:12:01.973Z,14.90
2023-07-21T01:13:01.906Z,14.90
2023-07-21T01:14:01.824Z,14.90
2023-07-21T01:15:01.751Z,14.87
2023-07-21T01:16:01.660Z,14.88
2023-07-21T01:17:01.613Z,14.91
2023-07-21T01:18:01.547Z,14.75
2023-07-21T01:19:01.439Z,14.71
2023-07-21T01:20:01.527Z,14.78
2023-07-21T01:21:01.277Z,14.83
2023-07-21T01:22:01.197Z,14.75
2023-07-21T01:23:01.115Z,14.72
2023-07-21T01:24:01.053Z,14.65
2023-07-21T01:25:00.966Z,14.80
2023-07-21T01:26:00.880Z,14.85
2023-07-21T01:27:00.799Z,14.78
2023-07-21T01:28:00.726Z,14.91
2023-07-21T01:29:00.651Z,14.87
2023-07-21T01:30:00.584Z,14.87
2023-07-21T01:31:00.529Z,14.88
2023-07-21T01:32:00.417Z,14.74
2023-07-21T01:33:00.467Z,14.78
2023-07-21T01:34:00.261Z,14.68
2023-07-21T01:35:00.185Z,14.65
2023-07-21T01:36:00.125Z,14.65
2023-07-21T01:37:00.029Z,14.74
2023-07-21T01:37:59.951Z,14.85
2023-07-21T01:38:59.872Z,14.83
2023-07-21T01:39:59.796Z,14.88
2023-07-21T01:40:59.717Z,14.88
2023-07-21T01:41:59.634Z,14.94
2023-07-21T01:42:59.551Z,14.90
2023-07-21T01:43:59.506Z,14.83
2023-07-21T01:44:59.401Z,14.84
2023-07-21T01:45:59.320Z,14.85
2023-07-21T01:46:59.303Z,14.88
2023-07-21T01:47:59.227Z,14.85
2023-07-21T01:48:59.088Z,14.93
2023-07-21T01:49:59.010Z,14.91
2023-07-21T01:50:58.950Z,14.88
2023-07-21T01:51:58.856Z,14.85
2023-07-21T01:52:58.773Z,14.80
2023-07-21T01:53:58.691Z,14.90
2023-07-21T01:54:58.620Z,14.90
2023-07-21T01:55:58.557Z,14.90
2023-07-21T01:56:58.473Z,14.83
2023-07-21T01:57:58.391Z,14.88
2023-07-21T01:58:58.319Z,14.97
2023-07-21T01:59:58.228Z,14.94
2023-07-21T02:00:58.155Z,15.02
2023-07-21T02:01:58.097Z,15.02
2023-07-21T02:02:58.081Z,15.01
2023-07-21T02:03:57.947Z,14.98
2023-07-21T02:04:57.847Z,15.01
2023-07-21T02:05:57.771Z,15.02
2023-07-21T02:06:57.684Z,15.02
2023-07-21T02:07:57.701Z,14.98
2023-07-21T02:08:57.531Z,15.02
2023-07-21T02:09:57.451Z,15.12
2023-07-21T02:10:57.370Z,15.13
2023-07-21T02:11:57.295Z,15.16
2023-07-21T02:12:57.221Z,15.16
2023-07-21T02:13:57.179Z,15.21
2023-07-21T02:14:57.067Z,15.16
2023-07-21T02:15:56.986Z,15.06
2023-07-21T02:16:56.949Z,15.06
2023-07-21T02:17:56.880Z,15.02
2023-07-21T02:18:56.745Z,15.02
2023-07-21T02:19:56.676Z,14.97
2023-07-21T02:20:56.604Z,14.95
2023-07-21T02:21:56.515Z,14.94
2023-07-21T02:22:56.430Z,14.90
2023-07-21T02:23:56.384Z,14.93
2023-07-21T02:24:56.404Z,14.91
2023-07-21T02:25:56.200Z,14.93
2023-07-21T02:26:56.123Z,14.94
2023-07-21T02:27:56.042Z,14.80
2023-07-21T02:28:55.957Z,14.95
2023-07-21T02:29:55.882Z,14.90
2023-07-21T02:30:55.812Z,14.94
2023-07-21T02:31:55.774Z,14.94
2023-07-21T02:32:55.661Z,14.93
2023-07-21T02:33:55.573Z,14.93
2023-07-21T02:34:55.498Z,14.93
2023-07-21T02:35:55.421Z,14.94
2023-07-21T02:36:55.341Z,14.95
2023-07-21T02:37:55.272Z,14.93
2023-07-21T02:38:55.197Z,15.02
2023-07-21T02:39:55.114Z,14.98
2023-07-21T02:40:55.043Z,15.08
2023-07-21T02:41:54.947Z,15.06
2023-07-21T02:42:54.876Z,15.09
2023-07-21T02:43:54.805Z,15.05
2023-07-21T02:44:54.720Z,15.01
2023-07-21T02:45:54.682Z,14.94
2023-07-21T02:46:54.555Z,14.91
2023-07-21T02:47:54.548Z,14.87
2023-07-21T02:48:54.405Z,14.80
2023-07-21T02:49:54.328Z,14.80
2023-07-21T02:50:54.251Z,14.80
2023-07-21T02:51:54.168Z,14.83
2023-07-21T02:52:54.090Z,14.67
2023-07-21T02:53:54.011Z,14.67
2023-07-21T02:54:53.931Z,14.65
2023-07-21T02:55:53.918Z,14.61
2023-07-21T02:56:53.777Z,14.61
2023-07-21T02:57:53.704Z,14.64
2023-07-21T02:58:53.617Z,14.57
2023-07-21T02:59:53.539Z,14.69
2023-07-21T03:00:53.456Z,14.78
2023-07-21T03:01:53.413Z,14.85
2023-07-21T03:02:53.387Z,14.79
2023-07-21T03:03:53.267Z,14.83
2023-07-21T03:04:53.144Z,14.83
2023-07-21T03:05:53.078Z,14.93
2023-07-21T03:06:53.000Z,14.85
2023-07-21T03:07:52.919Z,14.80
2023-07-21T03:08:52.840Z,14.90
2023-07-21T03:09:52.768Z,14.85
2023-07-21T03:10:52.679Z,14.79
2023-07-21T03:11:52.613Z,14.75
2023-07-21T03:12:52.538Z,14.74
2023-07-21T03:13:52.442Z,14.65
2023-07-21T03:14:52.362Z,14.60
2023-07-21T03:15:52.301Z,14.60
2023-07-21T03:16:52.352Z,14.72
2023-07-21T03:17:52.274Z,14.64
2023-07-21T03:18:52.059Z,14.65
2023-07-21T03:19:51.976Z,14.64
2023-07-21T03:20:51.900Z,14.64
2023-07-21T03:21:51.824Z,14.54
2023-07-21T03:22:51.764Z,14.57
2023-07-21T03:23:51.660Z,14.61
2023-07-21T03:24:51.676Z,14.46
2023-07-21T03:25:51.509Z,14.53
2023-07-21T03:26:51.424Z,14.50
2023-07-21T03:27:51.353Z,14.50
2023-07-21T03:28:51.270Z,14.56
2023-07-21T03:29:51.193Z,14.59
2023-07-21T03:30:51.120Z,14.61
2023-07-21T03:31:51.171Z,14.65
2023-07-21T03:32:51.037Z,14.65
2023-07-21T03:33:50.883Z,14.61
2023-07-21T03:34:50.800Z,14.61
2023-07-21T03:35:50.732Z,14.61
2023-07-21T03:36:50.648Z,14.68
2023-07-21T03:37:50.570Z,14.60
2023-07-21T03:38:50.483Z,14.57
2023-07-21T03:39:50.407Z,14.57
2023-07-21T03:40:50.332Z,14.53
2023-07-21T03:41:50.258Z,14.54
2023-07-21T03:42:50.180Z,14.46
2023-07-21T03:43:50.098Z,14.52
2023-07-21T03:44:50.025Z,14.52
2023-07-21T03:45:50.061Z,14.42
2023-07-21T03:46:49.903Z,14.42
2023-07-21T03:47:49.792Z,14.52
2023-07-21T03:48:49.712Z,14.39
2023-07-21T03:49:49.621Z,14.36
2023-07-21T03:50:49.556Z,14.47
2023-07-21T03:51:49.490Z,14.49
2023-07-21T03:52:50.484Z,14.44
2023-07-21T03:53:49.311Z,14.42
2023-07-21T03:54:49.238Z,14.47
2023-07-21T03:55:49.151Z,14.36
2023-07-21T03:56:49.084Z,14.36
2023-07-21T03:57:49.002Z,14.44
2023-07-21T03:58:48.919Z,14.41
2023-07-21T03:59:48.874Z,14.35
2023-07-21T04:00:48.882Z,14.38
2023-07-21T04:01:48.728Z,14.39
2023-07-21T04:02:48.663Z,14.39
2023-07-21T04:03:48.567Z,14.36
2023-07-21T04:04:48.544Z,14.39
2023-07-21T04:05:48.373Z,14.34
2023-07-21T04:06:48.301Z,14.38
2023-07-21T04:07:48.219Z,14.46
2023-07-21T04:08:48.138Z,14.50
2023-07-21T04:09:48.062Z,14.46
2023-07-21T04:10:47.993Z,14.59
2023-07-21T04:11:47.900Z,14.71
2023-07-21T04:12:47.824Z,14.72
2023-07-21T04:13:47.739Z,14.75
2023-07-21T04:14:47.675Z,14.85
2023-07-21T04:15:47.608Z,14.80
2023-07-21T04:16:47.511Z,14.80
2023-07-21T04:17:47.453Z,14.93
2023-07-21T04:18:47.375Z,14.87
2023-07-21T04:19:47.275Z,14.91
2023-07-21T04:20:47.193Z,14.88
2023-07-21T04:21:47.108Z,14.88
2023-07-21T04:22:47.045Z,14.84
2023-07-21T04:23:46.957Z,14.84
2023-07-21T04:24:47.026Z,14.90
2023-07-21T04:25:46.807Z,14.80
2023-07-21T04:26:46.722Z,14.80
2023-07-21T04:27:46.647Z,14.79
2023-07-21T04:28:46.572Z,14.85
2023-07-21T04:29:46.489Z,14.90
2023-07-21T04:30:46.412Z,14.85
2023-07-21T04:31:46.400Z,14.88
2023-07-21T04:32:46.283Z,14.88
2023-07-21T04:33:46.178Z,14.84
2023-07-21T04:34:46.098Z,14.88
2023-07-21T04:35:46.012Z,14.87
2023-07-21T04:36:45.937Z,14.93
2023-07-21T04:37:45.862Z,14.84
2023-07-21T04:38:45.786Z,14.91
2023-07-21T04:39:45.710Z,14.87
2023-07-21T04:40:45.673Z,14.97
2023-07-21T04:41:45.543Z,14.97
2023-07-21T04:42:45.476Z,14.91
2023-07-21T04:43:45.397Z,14.90
2023-07-21T04:44:45.313Z,15.02
2023-07-21T04:45:45.237Z,15.01
2023-07-21T04:46:45.227Z,15.13
2023-07-21T04:47:45.140Z,15.05
2023-07-21T04:48:45.007Z,15.03
2023-07-21T04:49:44.924Z,14.94
2023-07-21T04:50:44.850Z,15.05
2023-07-21T04:51:44.766Z,15.08
2023-07-21T04:52:44.696Z,15.05
2023-07-21T04:53:44.609Z,15.05
2023-07-21T04:54:44.531Z,15.08
2023-07-21T04:55:44.456Z,15.23
2023-07-21T04:56:44.372Z,15.18
2023-07-21T04:57:44.314Z,15.23
2023-07-21T04:58:44.212Z,15.26
2023-07-21T04:59:44.137Z,15.30
2023-07-21T05:00:44.087Z,15.38
2023-07-21T05:01:43.982Z,15.34
2023-07-21T05:02:43.967Z,15.38
2023-07-21T05:03:43.851Z,15.43
2023-07-21T05:04:43.773Z,15.53
2023-07-21T05:05:43.669Z,15.42
2023-07-21T05:06:43.589Z,15.53
2023-07-21T05:07:43.514Z,15.53
2023-07-21T05:08:43.429Z,15.57
2023-07-21T05:09:43.360Z,15.60
2023-07-21T05:10:43.281Z,15.61
2023-07-21T05:11:43.217Z,15.61
2023-07-21T05:12:43.126Z,15.70
2023-07-21T05:13:43.049Z,15.63
2023-07-21T05:14:42.978Z,15.75
2023-07-21T05:15:42.891Z,15.70
2023-07-21T05:16:42.840Z,15.70
2023-07-21T05:17:42.747Z,15.73
2023-07-21T05:18:42.652Z,15.76
2023-07-21T05:19:42.575Z,15.76
2023-07-21T05:20:42.524Z,15.79
2023-07-21T05:21:42.415Z,15.73
2023-07-21T05:22:42.337Z,15.76
2023-07-21T05:23:42.265Z,15.79
2023-07-21T05:24:42.214Z,15.83
2023-07-21T05:25:42.112Z,15.81
2023-07-21T05:26:42.026Z,15.86
2023-07-21T05:27:41.957Z,15.86
2023-07-21T05:28:41.882Z,15.91
2023-07-21T05:29:41.799Z,16.01
2023-07-21T05:30:41.749Z,16.07
2023-07-21T05:31:41.631Z,16.03
2023-07-21T05:32:41.582Z,16.12
2023-07-21T05:33:41.481Z,16.12
2023-07-21T05:34:41.416Z,16.08
2023-07-21T05:35:41.332Z,16.16
2023-07-21T05:36:41.247Z,16.18
2023-07-21T05:37:41.191Z,16.29
2023-07-21T05:38:41.094Z,16.27
2023-07-21T05:39:41.060Z,16.38
2023-07-21T05:40:40.939Z,16.30
2023-07-21T05:41:40.882Z,16.29
2023-07-21T05:42:40.785Z,16.37
2023-07-21T05:43:40.705Z,16.38
2023-07-21T05:44:40.646Z,16.42
2023-07-21T05:45:40.668Z,16.45
2023-07-21T05:46:40.692Z,16.44
2023-07-21T05:47:40.427Z,16.55
2023-07-21T05:48:40.310Z,16.56
2023-07-21T05:49:40.236Z,16.59
2023-07-21T05:50:40.176Z,16.66
2023-07-21T05:51:40.264Z,16.71
2023-07-21T05:52:40.001Z,16.74
2023-07-21T05:53:40.046Z,16.75
2023-07-21T05:54:39.858Z,16.81
2023-07-21T05:55:39.764Z,16.88
2023-07-21T05:56:39.688Z,16.78
2023-07-21T05:57:39.623Z,16.85
2023-07-21T05:58:39.539Z,16.99
2023-07-21T05:59:39.460Z,17.02
2023-07-21T06:00:39.404Z,17.02
2023-07-21T06:01:39.297Z,17.13
2023-07-21T06:02:39.271Z,17.10
2023-07-21T06:03:39.208Z,17.11
2023-07-21T06:04:39.072Z,17.17
2023-07-21T06:05:38.995Z,17.21
2023-07-21T06:06:38.924Z,17.20
2023-07-21T06:07:38.936Z,17.23
2023-07-21T06:08:38.765Z,17.23
2023-07-21T06:09:38.675Z,17.33
2023-07-21T06:10:38.608Z,17.25
2023-07-21T06:11:38.550Z,17.29
2023-07-21T06:12:38.460Z,17.30
2023-07-21T06:13:38.383Z,17.20
2023-07-21T06:14:38.305Z,17.35
2023-07-21T06:15:38.215Z,17.40
2023-07-21T06:16:38.223Z,17.39
2023-07-21T06:17:38.084Z,17.46
2023-07-21T06:18:37.986Z,17.39
2023-07-21T06:19:37.898Z,17.55
2023-07-21T06:20:37.832Z,17.58
2023-07-21T06:21:37.749Z,17.55
2023-07-21T06:22:37.675Z,17.66
2023-07-21T06:23:37.601Z,17.77
2023-07-21T06:24:37.585Z,17.82
2023-07-21T06:25:37.444Z,17.81
2023-07-21T06:26:37.363Z,17.87
2023-07-21T06:27:37.283Z,17.91
2023-07-21T06:28:37.227Z,18.02
2023-07-21T06:29:37.130Z,17.98
2023-07-21T06:30:37.088Z,18.09
2023-07-21T06:31:36.983Z,18.03
2023-07-21T06:32:36.934Z,18.07
2023-07-21T06:33:36.830Z,18.09
2023-07-21T06:34:36.748Z,18.13
2023-07-21T06:35:36.679Z,18.11
2023-07-21T06:36:36.608Z,18.22
2023-07-21T06:37:36.516Z,18.22
2023-07-21T06:38:36.435Z,18.21
2023-07-21T06:39:36.374Z,18.37
2023-07-21T06:40:36.292Z,18.25
2023-07-21T06:41:36.207Z,18.39
2023-07-21T06:42:36.127Z,18.40
2023-07-21T06:43:36.047Z,18.52
2023-07-21T06:44:35.976Z,18.58
2023-07-21T06:45:35.893Z,18.67
2023-07-21T06:46:35.875Z,18.64
2023-07-21T06:47:36.077Z,18.68
2023-07-21T06:48:35.687Z,18.83
2023-07-21T06:49:35.598Z,18.83
2023-07-21T06:50:35.515Z,18.90
2023-07-21T06:51:35.442Z,18.94
2023-07-21T06:52:35.361Z,19.09
2023-07-21T06:53:35.297Z,19.15
2023-07-21T06:54:35.199Z,19.32
2023-07-21T06:55:35.140Z,19.35
2023-07-21T06:56:35.047Z,19.42
2023-07-21T06:57:34.972Z,19.40
2023-07-21T06:58:34.899Z,19.53
2023-07-21T06:59:34.816Z,19.57
2023-07-21T07:00:34.745Z,19.65
2023-07-21T07:01:34.709Z,19.68
2023-07-21T07:02:34.732Z,19.72
2023-07-21T07:03:34.526Z,19.78
2023-07-21T07:04:34.445Z,19.88
2023-07-21T07:05:34.363Z,19.97
2023-07-21T07:06:34.287Z,20.03
2023-07-21T07:07:34.208Z,20.13
2023-07-21T07:08:34.138Z,20.08
2023-07-21T07:09:34.060Z,20.19
2023-07-21T07:10:33.998Z,20.23
2023-07-21T07:11:33.909Z,20.23
2023-07-21T07:12:33.866Z,20.24
2023-07-21T07:13:33.745Z,20.31
2023-07-21T07:14:33.683Z,20.24
2023-07-21T07:15:33.606Z,20.37
2023-07-21T07:16:33.557Z,20.50
2023-07-21T07:17:33.477Z,20.50
2023-07-21T07:18:33.375Z,20.51
2023-07-21T07:19:33.294Z,20.62
2023-07-21T07:20:33.224Z,20.54
2023-07-21T07:21:33.145Z,20.59
2023-07-21T07:22:33.103Z,20.66
2023-07-21T07:23:32.987Z,20.69
2023-07-21T07:24:32.980Z,20.83
2023-07-21T07:25:32.885Z,20.79
2023-07-21T07:26:32.757Z,20.87
2023-07-21T07:27:32.704Z,20.98
2023-07-21T07:28:32.614Z,21.01
2023-07-21T07:29:32.557Z,21.04
2023-07-21T07:30:32.530Z,21.02
2023-07-21T07:31:32.415Z,21.23
2023-07-21T07:32:32.341Z,21.14
2023-07-21T07:33:32.234Z,21.35
2023-07-21T07:34:32.166Z,21.41
2023-07-21T07:35:32.076Z,21.42
2023-07-21T07:36:32.005Z,21.54
2023-07-21T07:37:31.930Z,21.61
2023-07-21T07:38:31.920Z,21.76
2023-07-21T07:39:31.776Z,21.85
2023-07-21T07:40:31.701Z,22.04
2023-07-21T07:41:31.622Z,22.02
2023-07-21T07:42:31.589Z,22.01
2023-07-21T07:43:31.494Z,22.12
2023-07-21T07:44:31.402Z,22.23
2023-07-21T07:45:31.326Z,22.30
2023-07-21T07:46:31.248Z,22.47
2023-07-21T07:47:31.234Z,22.46
2023-07-21T07:48:31.102Z,22.53
2023-07-21T07:49:31.020Z,22.81
2023-07-21T07:50:30.939Z,22.86
2023-07-21T07:51:30.867Z,23.04
2023-07-21T07:52:30.808Z,23.15
2023-07-21T07:53:30.731Z,23.18
2023-07-21T07:54:30.653Z,23.37
2023-07-21T07:55:30.573Z,23.42
2023-07-21T07:56:30.500Z,23.38
2023-07-21T07:57:30.421Z,23.48
2023-07-21T07:58:30.353Z,23.55
2023-07-21T07:59:30.277Z,23.55
2023-07-21T08:00:30.202Z,23.67
2023-07-21T08:01:30.184Z,23.74
2023-07-21T08:02:30.116Z,23.74
2023-07-21T08:03:30.135Z,23.83
2023-07-21T08:04:30.026Z,23.89
2023-07-21T08:05:29.833Z,23.95
2023-07-21T08:06:31.160Z,23.98
2023-07-21T08:07:29.673Z,24.15
2023-07-21T08:08:29.606Z,24.19
2023-07-21T08:09:29.565Z,24.20
2023-07-21T08:10:29.458Z,24.30
2023-07-21T08:11:29.385Z,24.38
2023-07-21T08:12:29.308Z,24.52
2023-07-21T08:13:29.246Z,24.47
2023-07-21T08:14:29.158Z,24.59
2023-07-21T08:15:29.089Z,24.60
2023-07-21T08:16:29.094Z,24.83
2023-07-21T08:17:29.093Z,24.90
2023-07-21T08:18:28.916Z,24.88
2023-07-21T08:19:28.787Z,24.79
2023-07-21T08:20:28.717Z,24.93
2023-07-21T08:21:29.164Z,25.00
2023-07-21T08:22:28.565Z,25.16
2023-07-21T08:23:30.406Z,25.05
2023-07-21T08:24:28.469Z,25.13
2023-07-21T08:25:28.353Z,25.13
2023-07-21T08:26:28.289Z,25.16
2023-07-21T08:27:28.206Z,25.20
2023-07-21T08:28:28.131Z,25.13
2023-07-21T08:29:28.049Z,25.20
2023-07-21T08:30:27.982Z,25.22
2023-07-21T08:31:28.333Z,25.27
2023-07-21T08:32:27.887Z,25.31
2023-07-21T08:33:27.788Z,25.30
2023-07-21T08:34:27.693Z,25.41
2023-07-21T08:35:27.614Z,25.57
2023-07-21T08:36:36.801Z,25.60
2023-07-21T08:37:27.473Z,25.72
2023-07-21T08:38:27.411Z,25.78
2023-07-21T08:39:27.341Z,25.70
2023-07-21T08:40:27.255Z,25.71
2023-07-21T08:41:27.537Z,25.55
2023-07-21T08:42:27.112Z,25.42
2023-07-21T08:43:27.111Z,25.46
2023-07-21T08:44:26.961Z,25.46
2023-07-21T08:45:26.892Z,25.57
2023-07-21T08:46:26.946Z,25.67
2023-07-21T08:47:26.756Z,25.60
2023-07-21T08:48:26.674Z,25.56
2023-07-21T08:49:26.609Z,25.67
2023-07-21T08:50:26.527Z,25.60
2023-07-21T08:51:26.696Z,25.67
2023-07-21T08:52:26.385Z,25.60
2023-07-21T08:53:26.319Z,25.68
2023-07-21T08:54:26.237Z,25.75
2023-07-21T08:55:26.171Z,25.70
2023-07-21T08:56:26.485Z,25.65
2023-07-21T08:57:26.017Z,25.64
2023-07-21T08:58:27.353Z,25.86
2023-07-21T08:59:25.882Z,25.89
2023-07-21T09:00:25.804Z,25.97
2023-07-21T09:01:25.797Z,25.94
2023-07-21T09:02:25.677Z,26.12
2023-07-21T09:03:25.649Z,26.16
2023-07-21T09:04:25.508Z,26.16
2023-07-21T09:05:25.484Z,26.21
2023-07-21T09:06:25.557Z,26.07
2023-07-21T09:07:25.297Z,26.18
2023-07-21T09:08:25.222Z,26.25
2023-07-21T09:09:25.159Z,26.12
2023-07-21T09:10:25.082Z,26.30
2023-07-21T09:11:25.006Z,26.24
2023-07-21T09:12:24.940Z,26.12
2023-07-21T09:13:24.869Z,26.07
2023-07-21T09:14:24.796Z,26.12
2023-07-21T09:15:24.732Z,26.09
2023-07-21T09:16:25.123Z,26.25
2023-07-21T09:17:24.599Z,26.24
2023-07-21T09:18:24.520Z,26.23
2023-07-21T09:19:24.446Z,26.23
2023-07-21T09:20:24.371Z,26.18
2023-07-21T09:21:24.357Z,26.11
2023-07-21T09:22:24.216Z,26.11
2023-07-21T09:23:24.161Z,26.08
2023-07-21T09:24:24.116Z,26.16
2023-07-21T09:25:24.000Z,25.94
2023-07-21T09:26:24.661Z,25.87
2023-07-21T09:27:23.872Z,25.86
2023-07-21T09:28:23.784Z,25.87
2023-07-21T09:29:23.713Z,25.83
2023-07-21T09:30:23.643Z,25.97
2023-07-21T09:31:23.581Z,26.02
2023-07-21T09:32:23.500Z,25.94
2023-07-21T09:33:23.432Z,26.04
2023-07-21T09:34:23.365Z,26.02
2023-07-21T09:35:23.384Z,26.20
2023-07-21T09:36:26.126Z,26.18
2023-07-21T09:37:23.156Z,26.24
2023-07-21T09:38:23.068Z,26.40
2023-07-21T09:39:23.003Z,26.34
2023-07-21T09:40:22.931Z,26.45
2023-07-21T09:41:22.871Z,26.46
2023-07-21T09:42:22.779Z,26.43
2023-07-21T09:43:22.709Z,26.35
2023-07-21T09:44:22.655Z,26.31
2023-07-21T09:45:22.591Z,26.18
2023-07-21T09:46:22.490Z,26.04
2023-07-21T09:47:22.628Z,25.87
2023-07-21T09:48:22.364Z,25.94
2023-07-21T09:49:22.280Z,26.12
2023-07-21T09:50:22.218Z,26.21
2023-07-21T09:51:22.142Z,26.21
2023-07-21T09:52:22.065Z,26.35
2023-07-21T09:53:21.994Z,26.43
2023-07-21T09:54:21.942Z,26.46
2023-07-21T09:55:21.853Z,26.53
2023-07-21T09:56:21.809Z,26.49
2023-07-21T09:57:21.712Z,26.34
2023-07-21T09:58:21.639Z,26.40
2023-07-21T09:59:21.642Z,26.39
2023-07-21T10:00:21.569Z,26.40
2023-07-21T10:01:21.539Z,26.53
2023-07-21T10:02:21.391Z,26.57
2023-07-21T10:03:21.315Z,26.58
2023-07-21T10:04:21.206Z,26.45
2023-07-21T10:05:21.156Z,26.50
2023-07-21T10:06:21.070Z,26.43
2023-07-21T10:07:21.003Z,26.46
2023-07-21T10:08:20.922Z,26.42
2023-07-21T10:09:20.847Z,26.31
2023-07-21T10:10:20.770Z,26.31
2023-07-21T10:11:20.706Z,26.32
2023-07-21T10:12:20.637Z,26.42
2023-07-21T10:13:20.567Z,26.39
2023-07-21T10:14:20.490Z,26.35
2023-07-21T10:15:20.506Z,26.43
2023-07-21T10:16:20.367Z,26.45
2023-07-21T10:17:20.285Z,26.61
2023-07-21T10:18:20.209Z,26.72
2023-07-21T10:19:20.135Z,26.90
2023-07-21T10:20:20.069Z,26.97
2023-07-21T10:21:19.997Z,27.07
2023-07-21T10:22:19.920Z,27.23
2023-07-21T10:23:19.873Z,27.27
2023-07-21T10:24:19.804Z,27.36
2023-07-21T10:25:19.710Z,27.50
2023-07-21T10:26:19.640Z,27.57
2023-07-21T10:27:19.562Z,27.57
2023-07-21T10:28:19.496Z,27.36
2023-07-21T10:29:19.429Z,27.21
2023-07-21T10:30:19.364Z,27.23
2023-07-21T10:31:19.306Z,27.26
2023-07-21T10:32:19.213Z,27.02
2023-07-21T10:33:19.145Z,27.04
2023-07-21T10:34:19.064Z,27.09
2023-07-21T10:35:20.203Z,27.29
2023-07-21T10:36:18.925Z,27.32
2023-07-21T10:37:18.860Z,27.34
2023-07-21T10:38:18.816Z,27.31
2023-07-21T10:39:18.731Z,27.34
2023-07-21T10:40:18.651Z,27.27
2023-07-21T10:41:19.736Z,27.31
2023-07-21T10:42:18.629Z,27.34
2023-07-21T10:43:18.436Z,27.38
2023-07-21T10:44:18.371Z,27.51
2023-07-21T10:45:18.300Z,27.54
2023-07-21T10:46:18.325Z,27.70
2023-07-21T10:47:18.348Z,27.83
2023-07-21T10:48:18.176Z,27.91
2023-07-21T10:49:18.025Z,27.74
2023-07-21T10:50:17.986Z,27.77
2023-07-21T10:51:17.877Z,27.79
2023-07-21T10:52:17.854Z,27.83
2023-07-21T10:53:17.736Z,27.88
2023-07-21T10:54:17.674Z,27.97
2023-07-21T10:55:17.606Z,27.99
2023-07-21T10:56:17.536Z,27.92
2023-07-21T10:57:17.467Z,27.76
2023-07-21T10:58:17.379Z,27.80
2023-07-21T10:59:17.308Z,27.82
2023-07-21T11:00:17.255Z,27.87
2023-07-21T11:01:17.178Z,27.83
2023-07-21T11:02:17.221Z,27.87
2023-07-21T11:03:17.130Z,27.87
2023-07-21T11:04:16.987Z,27.95
2023-07-21T11:05:16.906Z,28.04
2023-07-21T11:06:16.831Z,28.20
2023-07-21T11:07:16.757Z,27.92
2023-07-21T11:08:16.685Z,27.73
2023-07-21T11:09:16.628Z,27.70
2023-07-21T11:10:16.605Z,27.60
2023-07-21T11:11:16.484Z,27.65
2023-07-21T11:12:16.407Z,27.69
2023-07-21T11:13:16.334Z,27.72
2023-07-21T11:14:16.257Z,27.64
2023-07-21T11:15:16.202Z,27.76
2023-07-21T11:16:16.168Z,27.77
2023-07-21T11:17:16.082Z,27.89
2023-07-21T11:18:15.981Z,28.01
2023-07-21T11:19:15.915Z,28.20
2023-07-21T11:20:16.072Z,28.04
2023-07-21T11:21:15.795Z,28.02
2023-07-21T11:22:15.706Z,27.83
2023-07-21T11:23:15.640Z,27.98
2023-07-21T11:24:15.591Z,27.83
2023-07-21T11:25:15.503Z,27.84
2023-07-21T11:26:15.433Z,27.92
2023-07-21T11:27:15.370Z,27.94
2023-07-21T11:28:15.292Z,28.02
2023-07-21T11:29:15.224Z,28.19
2023-07-21T11:30:15.212Z,28.11
2023-07-21T11:31:15.144Z,28.07
2023-07-21T11:32:15.110Z,27.73
2023-07-21T11:33:14.970Z,27.70
2023-07-21T11:34:14.874Z,27.74
2023-07-21T11:35:14.842Z,27.80
2023-07-21T11:36:14.734Z,27.77
2023-07-21T11:37:14.659Z,27.84
2023-07-21T11:38:14.596Z,27.88
2023-07-21T11:39:14.524Z,27.97
2023-07-21T11:40:14.556Z,28.01
2023-07-21T11:41:14.387Z,27.79
2023-07-21T11:42:14.315Z,27.95
2023-07-21T11:43:14.241Z,27.94
2023-07-21T11:44:14.166Z,28.04
2023-07-21T11:45:14.105Z,28.19
2023-07-21T11:46:14.080Z,28.31
2023-07-21T11:47:14.011Z,28.35
2023-07-21T11:48:13.903Z,28.28
2023-07-21T11:49:13.819Z,28.32
2023-07-21T11:50:13.854Z,28.31
2023-07-21T11:51:13.684Z,28.24
2023-07-21T11:52:13.619Z,28.16
2023-07-21T11:53:13.551Z,28.24
2023-07-21T11:54:13.473Z,28.16
2023-07-21T11:55:13.415Z,27.88
2023-07-21T11:56:13.335Z,27.80
2023-07-21T11:57:13.272Z,27.70
2023-07-21T11:58:13.199Z,27.65
2023-07-21T11:59:13.135Z,27.70
2023-07-21T12:00:13.061Z,27.70
2023-07-21T12:01:12.991Z,27.69
2023-07-21T12:02:12.959Z,27.64
2023-07-21T12:03:12.908Z,27.64
2023-07-21T12:04:12.828Z,27.79
2023-07-21T12:05:12.709Z,27.72
2023-07-21T12:06:12.643Z,27.72
2023-07-21T12:07:12.569Z,27.73
2023-07-21T12:08:12.508Z,27.69
2023-07-21T12:09:12.428Z,27.87
2023-07-21T12:10:12.371Z,28.01
2023-07-21T12:11:12.297Z,28.16
2023-07-21T12:12:12.227Z,28.36
2023-07-21T12:13:12.160Z,28.56
2023-07-21T12:14:12.080Z,28.75
2023-07-21T12:15:12.060Z,28.91
2023-07-21T12:16:11.976Z,29.03
2023-07-21T12:17:12.957Z,29.11
2023-07-21T12:18:11.831Z,29.25
2023-07-21T12:19:11.736Z,29.38
2023-07-21T12:20:11.667Z,29.28
2023-07-21T12:21:11.598Z,29.29
2023-07-21T12:22:11.529Z,29.16
2023-07-21T12:23:12.890Z,29.01
2023-07-21T12:24:11.422Z,28.94
2023-07-21T12:25:11.322Z,28.80
2023-07-21T12:26:11.250Z,28.80
2023-07-21T12:27:11.180Z,28.71
2023-07-21T12:28:11.208Z,28.71
2023-07-21T12:29:11.190Z,28.57
2023-07-21T12:30:11.039Z,28.44
2023-07-21T12:31:11.041Z,28.29
2023-07-21T12:32:11.155Z,28.22
2023-07-21T12:33:10.985Z,28.06
2023-07-21T12:34:10.710Z,27.97
2023-07-21T12:35:10.620Z,28.01
2023-07-21T12:36:10.571Z,27.88
2023-07-21T12:37:10.524Z,27.89
2023-07-21T12:38:10.445Z,27.74
2023-07-21T12:39:10.354Z,27.83
2023-07-21T12:40:10.350Z,27.76
2023-07-21T12:41:10.213Z,27.82
2023-07-21T12:42:10.144Z,27.76
2023-07-21T12:43:10.073Z,27.69
2023-07-21T12:44:10.158Z,27.80
2023-07-21T12:45:09.935Z,27.80
2023-07-21T12:46:09.924Z,27.79
2023-07-21T12:47:09.793Z,27.73
2023-07-21T12:48:09.747Z,27.80
2023-07-21T12:49:09.656Z,27.77
2023-07-21T12:50:09.603Z,27.64
2023-07-21T12:51:09.521Z,27.73